Time;durP1;ratioP1;P1;durP2;ratioP2;P2;SDS_P1;SDS_P2;PMS_P1;PMS_P2;Temp;Humidity;BMP_temperature;BMP_pressure;BME280_temperature;BME280_humidity;BME280_pressure;Samples;Min_cycle;Max_cycle;Signal;HPM_P1;HPM_P2
2023/01/19 00:00:14;;;;;;;0.77;0.77;;;;;;;-2.97;99.32;99171.47;5052808;28;20457;-56
2023/01/19 00:02:42;;;;;;;2.43;2.23;;;;;;;-2.68;99.07;99166.44;5053485;28;20495;-53
2023/01/19 00:05:09;;;;;;;0.50;0.50;;;;;;;-2.82;99.54;99165.50;5035248;28;20875;-53
2023/01/19 00:07:35;;;;;;;0.60;0.60;;;;;;;-2.62;99.09;99170.81;5052910;28;20457;-55
2023/01/19 00:10:02;;;;;;;1.00;0.83;;;;;;;-2.75;98.82;99175.06;5052675;28;20497;-53
2023/01/19 00:12:28;;;;;;;1.57;0.57;;;;;;;-2.68;99.47;99171.66;5051900;28;20885;-54
2023/01/19 00:14:54;;;;;;;0.77;0.73;;;;;;;-2.77;100.00;99176.78;5049965;28;20472;-53
2023/01/19 00:17:21;;;;;;;0.37;0.37;;;;;;;-2.84;100.00;99177.63;5052560;28;20442;-53
2023/01/19 00:19:47;;;;;;;13.43;0.87;;;;;;;-2.58;99.86;99183.84;5052735;28;20447;-53
2023/01/19 00:22:14;;;;;;;0.20;0.20;;;;;;;-2.78;99.14;99181.09;5052560;28;20840;-53
2023/01/19 00:24:40;;;;;;;1.27;0.73;;;;;;;-2.81;99.26;99186.28;5052548;28;20450;-53
2023/01/19 00:27:07;;;;;;;3.03;1.43;;;;;;;-2.74;99.07;99176.78;5052292;28;20451;-53
2023/01/19 00:29:34;;;;;;;1.43;1.43;;;;;;;-2.91;98.86;99184.47;5052590;28;20490;-53
2023/01/19 00:32:01;;;;;;;0.67;0.67;;;;;;;-3.00;99.16;99193.09;5052216;28;20479;-53
2023/01/19 00:34:35;;;;;;;0.50;0.50;;;;;;;-2.97;98.68;99188.78;5052492;28;20462;-54
2023/01/19 00:37:03;;;;;;;0.60;0.60;;;;;;;-2.91;98.80;99189.69;5052282;28;20469;-53
2023/01/19 00:39:29;;;;;;;0.30;0.30;;;;;;;-2.90;98.78;99188.81;5052274;28;20457;-53
2023/01/19 00:44:41;;;;;;;0.33;0.33;;;;;;;-2.83;100.00;99179.34;5052175;28;20486;-53
2023/01/19 00:47:07;;;;;;;0.83;0.40;;;;;;;-2.75;100.00;99190.66;5052264;28;20457;-53
2023/01/19 00:49:33;;;;;;;0.60;0.60;;;;;;;-2.92;99.56;99189.69;5051947;28;20494;-53
2023/01/19 00:52:00;;;;;;;0.40;0.30;;;;;;;-2.79;99.63;99189.78;5051926;28;20471;-53
2023/01/19 00:54:26;;;;;;;0.30;0.20;;;;;;;-2.95;99.11;99192.25;5034242;28;20447;-53
2023/01/19 00:56:53;;;;;;;0.80;0.37;;;;;;;-2.86;99.04;99190.59;5052232;28;20451;-53
2023/01/19 00:59:19;;;;;;;0.20;0.20;;;;;;;-2.80;98.56;99201.03;5052070;28;20443;-54
2023/01/19 01:01:45;;;;;;;0.63;0.53;;;;;;;-2.71;98.74;99192.44;5051786;28;20490;-54
2023/01/19 01:04:13;;;;;;;0.57;0.57;;;;;;;-2.63;99.88;99190.75;5052124;28;20447;-53
2023/01/19 01:06:39;;;;;;;0.93;0.93;;;;;;;-2.77;99.78;99193.25;5051901;28;20447;-53
2023/01/19 01:09:10;;;;;;;1.07;0.40;;;;;;;-2.66;100.00;99195.06;5051900;28;20446;-52
2023/01/19 01:11:39;;;;;;;0.40;0.40;;;;;;;-2.71;100.00;99198.50;5051971;28;20588;-53
2023/01/19 01:14:05;;;;;;;0.60;0.60;;;;;;;-2.67;100.00;99194.19;5051971;28;20447;-53
2023/01/19 01:16:32;;;;;;;0.63;0.63;;;;;;;-2.70;100.00;99196.78;5051726;28;20817;-53
2023/01/19 01:18:59;;;;;;;2.87;0.73;;;;;;;-2.67;100.00;99195.91;5051878;28;20443;-53
2023/01/19 01:21:25;;;;;;;0.83;0.83;;;;;;;-2.34;100.00;99208.25;5051645;28;20470;-53
2023/01/19 01:23:52;;;;;;;0.30;0.30;;;;;;;-2.40;100.00;99203.88;5051848;28;20955;-53
2023/01/19 01:26:18;;;;;;;0.50;0.50;;;;;;;-2.36;99.76;99203.03;5051687;28;20920;-53
2023/01/19 01:28:44;;;;;;;0.30;0.23;;;;;;;-2.29;99.80;99201.34;5051896;28;20447;-53
2023/01/19 01:31:11;;;;;;;0.30;0.20;;;;;;;-2.26;99.67;99207.44;5051432;28;21002;-55
2023/01/19 01:33:37;;;;;;;0.20;0.20;;;;;;;-2.51;98.68;99208.16;5051783;28;20447;-53
2023/01/19 01:36:08;;;;;;;1.40;1.40;;;;;;;-2.29;99.74;99212.63;5051690;28;20455;-53
2023/01/19 01:38:34;;;;;;;0.80;0.80;;;;;;;-2.39;100.00;99213.44;5051523;28;20450;-53
2023/01/19 01:41:01;;;;;;;0.20;0.20;;;;;;;-2.09;99.85;99216.19;5051865;28;20457;-53
2023/01/19 01:43:57;;;;;;;1.53;1.43;;;;;;;-2.11;99.29;99223.13;5051706;28;20447;-53
2023/01/19 01:46:24;;;;;;;0.60;0.60;;;;;;;-1.75;100.00;99210.25;5051603;28;20442;-53
2023/01/19 01:49:12;;;;;;;2.57;1.23;;;;;;;-1.95;99.86;99218.84;5051656;28;20451;-53
2023/01/19 01:51:47;;;;;;;3.03;0.30;;;;;;;-1.89;98.94;99220.63;5051568;28;20585;-53
2023/01/19 01:54:21;;;;;;;0.50;0.50;;;;;;;-1.79;99.47;99222.38;5051689;28;20438;-53
2023/01/19 01:56:53;;;;;;;3.23;0.73;;;;;;;-1.88;99.46;99227.56;5033662;28;20532;-53
2023/01/19 01:59:25;;;;;;;3.23;2.93;;;;;;;-1.67;99.60;99229.38;5051736;28;20451;-54
2023/01/19 02:04:46;;;;;;;0.40;0.40;;;;;;;-2.40;99.57;99228.16;5055001;28;20509;-55
2023/01/19 02:15:34;;;;;;;4.13;0.27;;;;;;;-2.65;100.00;99225.41;5042311;28;20990;-53
2023/01/19 02:18:00;;;;;;;0.83;0.83;;;;;;;-2.44;99.73;99228.16;5055042;28;20450;-53
2023/01/19 02:20:30;;;;;;;0.30;0.20;;;;;;;-2.63;99.83;99219.34;5054893;28;20447;-53
2023/01/19 02:23:02;;;;;;;1.23;0.83;;;;;;;-2.45;100.00;99218.63;5054327;28;20481;-53
2023/01/19 02:25:29;;;;;;;1.17;1.00;;;;;;;-2.56;100.00;99221.13;5054736;28;20924;-53
2023/01/19 02:27:55;;;;;;;0.67;0.67;;;;;;;-2.56;100.00;99226.34;5054405;28;20454;-54
2023/01/19 02:30:22;;;;;;;1.13;0.67;;;;;;;-2.65;99.69;99226.28;5054744;28;20482;-53
2023/01/19 02:32:49;;;;;;;1.53;0.33;;;;;;;-2.81;99.81;99229.63;5054476;28;20466;-53
2023/01/19 02:35:16;;;;;;;0.37;0.33;;;;;;;-2.83;100.00;99227.00;5054695;28;20455;-53
2023/01/19 02:37:43;;;;;;;1.70;1.60;;;;;;;-2.89;100.00;99229.56;5054430;28;20455;-53
2023/01/19 02:40:13;;;;;;;1.27;0.93;;;;;;;-2.94;100.00;99226.06;5054561;28;20443;-54
2023/01/19 02:42:42;;;;;;;0.20;0.20;;;;;;;-2.79;100.00;99231.38;5054088;28;20887;-53
2023/01/19 02:45:11;;;;;;;0.77;0.57;;;;;;;-2.75;100.00;99227.94;5054547;28;20455;-54
2023/01/19 02:47:41;;;;;;;1.67;0.77;;;;;;;-2.86;100.00;99223.53;5054690;28;20451;-53
2023/01/19 02:50:37;;;;;;;1.33;1.33;;;;;;;-2.86;100.00;99220.94;5054382;28;20522;-53
2023/01/19 02:53:16;;;;;;;1.00;1.00;;;;;;;-2.77;99.88;99226.19;5042704;28;20469;-53
2023/01/19 02:55:53;;;;;;;0.53;0.53;;;;;;;-2.72;100.00;99227.97;5054208;28;20442;-53
2023/01/19 02:58:32;;;;;;;0.50;0.50;;;;;;;-2.74;100.00;99221.91;5054220;28;20446;-53
2023/01/19 03:01:14;;;;;;;0.60;0.60;;;;;;;-2.56;100.00;99223.75;5041377;28;20454;-53
2023/01/19 03:03:57;;;;;;;1.80;0.73;;;;;;;-2.54;100.00;99224.63;5054139;28;20469;-53
2023/01/19 03:06:45;;;;;;;0.73;0.73;;;;;;;-2.70;100.00;99225.38;5054080;28;20454;-53
2023/01/19 03:09:34;;;;;;;0.60;0.60;;;;;;;-2.69;100.00;99216.72;5053985;28;20453;-53
2023/01/19 03:12:08;;;;;;;0.87;0.87;;;;;;;-2.50;100.00;99222.91;5053793;28;20494;-54
2023/01/19 03:14:40;;;;;;;1.60;1.53;;;;;;;-2.57;100.00;99223.75;5052626;28;20932;-53
2023/01/19 03:17:09;;;;;;;2.30;0.47;;;;;;;-2.38;100.00;99215.16;5040875;28;20482;-53
2023/01/19 03:19:40;;;;;;;0.30;0.30;;;;;;;-2.52;100.00;99222.88;5053625;28;20451;-53
2023/01/19 03:22:12;;;;;;;0.40;0.33;;;;;;;-2.55;100.00;99211.59;5053379;28;20836;-53
2023/01/19 03:24:44;;;;;;;2.03;1.90;;;;;;;-2.57;100.00;99222.00;5053689;28;20901;-53
2023/01/19 03:27:16;;;;;;;0.40;0.20;;;;;;;-2.58;100.00;99222.00;5053782;28;20451;-53
2023/01/19 03:29:49;;;;;;;0.73;0.73;;;;;;;-2.41;100.00;99217.75;5053535;28;20450;-53
2023/01/19 03:32:20;;;;;;;0.70;0.50;;;;;;;-2.32;100.00;99217.81;5053428;28;20501;-53
2023/01/19 03:34:50;;;;;;;0.50;0.37;;;;;;;-2.44;100.00;99218.63;5053191;28;20447;-53
2023/01/19 03:37:19;;;;;;;0.30;0.20;;;;;;;-2.49;100.00;99219.44;5053516;28;20455;-53
2023/01/19 03:39:45;;;;;;;0.30;0.20;;;;;;;-2.43;100.00;99212.56;5053355;28;20447;-53
2023/01/19 03:42:15;;;;;;;0.47;0.47;;;;;;;-2.38;100.00;99217.78;5053170;28;20475;-53
2023/01/19 03:44:44;;;;;;;0.30;0.30;;;;;;;-2.26;100.00;99207.44;5053252;28;20459;-53
2023/01/19 03:47:13;;;;;;;0.53;0.53;;;;;;;-2.08;100.00;99209.25;5052940;28;20530;-54
2023/01/19 03:49:43;;;;;;;1.07;1.07;;;;;;;-2.04;100.00;99216.22;5053268;28;20887;-53
2023/01/19 03:52:09;;;;;;;0.40;0.40;;;;;;;-1.91;100.00;99217.16;5053009;28;20503;-54
2023/01/19 03:54:36;;;;;;;1.73;0.83;;;;;;;-1.91;100.00;99209.34;5053018;28;20480;-54
2023/01/19 03:57:02;;;;;;;0.30;0.20;;;;;;;-1.74;100.00;99222.41;5052795;28;20449;-53
2023/01/19 03:59:29;;;;;;;0.73;0.73;;;;;;;-1.48;100.00;99225.97;5052838;28;20447;-55
2023/01/19 04:01:55;;;;;;;0.30;0.30;;;;;;;-1.45;100.00;99219.88;5052782;28;20466;-54
2023/01/19 04:04:22;;;;;;;0.30;0.30;;;;;;;-1.52;100.00;99221.59;5053004;28;20488;-53
2023/01/19 04:06:48;;;;;;;0.63;0.63;;;;;;;-1.46;100.00;99219.00;5052756;28;20505;-54
2023/01/19 04:09:15;;;;;;;0.37;0.30;;;;;;;-1.35;100.00;99221.66;5052832;28;20508;-53
2023/01/19 04:11:44;;;;;;;0.50;0.50;;;;;;;-1.31;100.00;99228.59;5052570;28;20540;-53
2023/01/19 04:14:10;;;;;;;2.30;1.00;;;;;;;-1.20;100.00;99216.47;5052585;28;20439;-53
2023/01/19 04:16:37;;;;;;;0.93;0.50;;;;;;;-1.10;100.00;99225.13;5052501;28;20815;-53
2023/01/19 04:19:03;;;;;;;1.27;0.63;;;;;;;-1.01;100.00;99214.72;5052599;28;20451;-53
2023/01/19 04:21:30;;;;;;;0.50;0.50;;;;;;;-1.01;100.00;99206.91;5052272;28;21052;-53
2023/01/19 04:23:56;;;;;;;0.50;0.50;;;;;;;-0.87;100.00;99210.38;5052526;28;20940;-53
2023/01/19 04:26:22;;;;;;;0.30;0.20;;;;;;;-0.76;100.00;99219.06;5052071;28;20447;-54
2023/01/19 04:28:49;;;;;;;2.10;2.00;;;;;;;-0.73;100.00;99213.84;5052484;28;20867;-54
2023/01/19 04:31:15;;;;;;;1.97;0.90;;;;;;;-0.70;100.00;99218.19;5052336;28;20495;-53
2023/01/19 04:33:42;;;;;;;1.00;1.00;;;;;;;-0.69;100.00;99215.56;5052547;28;20446;-53
2023/01/19 04:36:08;;;;;;;0.80;0.80;;;;;;;-0.65;100.00;99212.09;5052133;28;20939;-53
2023/01/19 04:38:35;;;;;;;2.53;2.30;;;;;;;-0.58;100.00;99212.09;5052199;28;20497;-53
2023/01/19 04:41:01;;;;;;;0.30;0.20;;;;;;;-0.52;100.00;99215.56;5052202;28;20474;-53
2023/01/19 04:43:27;;;;;;;0.43;0.43;;;;;;;-0.33;100.00;99217.25;5052121;28;20457;-53
2023/01/19 04:45:54;;;;;;;1.43;0.97;;;;;;;-0.21;100.00;99218.09;5052143;28;20955;-53
2023/01/19 04:48:20;;;;;;;1.17;1.13;;;;;;;-0.15;100.00;99218.06;5052440;28;20458;-53
2023/01/19 04:50:47;;;;;;;0.40;0.40;;;;;;;0.04;100.00;99219.78;5052289;28;20490;-53
2023/01/19 04:53:15;;;;;;;1.53;1.53;;;;;;;-0.01;100.00;99221.50;5052445;28;20477;-53
2023/01/19 04:55:41;;;;;;;0.43;0.40;;;;;;;0.08;100.00;99216.25;5051916;28;20521;-54
2023/01/19 04:58:07;;;;;;;0.67;0.50;;;;;;;0.10;100.00;99213.66;5052008;28;20446;-53
2023/01/19 05:00:34;;;;;;;1.50;1.50;;;;;;;0.20;100.00;99213.59;5052009;28;20798;-53
2023/01/19 05:03:00;;;;;;;1.13;1.13;;;;;;;0.18;100.00;99220.59;5052034;28;20475;-53
2023/01/19 05:05:28;;;;;;;0.50;0.50;;;;;;;0.22;100.00;99222.28;5034633;28;20508;-53
2023/01/19 05:07:55;;;;;;;0.73;0.73;;;;;;;0.18;100.00;99215.34;5051997;28;20457;-53
2023/01/19 05:10:22;;;;;;;3.43;1.53;;;;;;;0.22;100.00;99222.28;5051686;28;20446;-53
2023/01/19 05:12:49;;;;;;;1.77;1.67;;;;;;;0.23;100.00;99208.34;5052132;28;20613;-53
2023/01/19 05:15:15;;;;;;;1.33;0.87;;;;;;;0.41;100.00;99215.25;5051906;28;20455;-53
2023/01/19 05:17:42;;;;;;;1.13;1.07;;;;;;;0.38;100.00;99222.22;5052132;28;20452;-53
2023/01/19 05:20:10;;;;;;;15.83;1.17;;;;;;;0.37;100.00;99218.75;5051993;28;20454;-53
2023/01/19 05:22:38;;;;;;;1.07;0.70;;;;;;;0.38;100.00;99217.00;5051715;28;20532;-53
2023/01/19 05:25:07;;;;;;;0.67;0.67;;;;;;;0.46;100.00;99225.69;5051575;28;20451;-53
2023/01/19 05:27:35;;;;;;;1.17;1.03;;;;;;;0.43;100.00;99217.88;5051725;28;20538;-54
2023/01/19 05:30:03;;;;;;;2.33;1.83;;;;;;;0.76;100.00;99228.09;5051771;28;20451;-53
2023/01/19 05:32:30;;;;;;;1.13;1.13;;;;;;;0.63;100.00;99229.06;5051571;28;21035;-54
2023/01/19 05:34:56;;;;;;;1.67;1.57;;;;;;;0.57;100.00;99229.13;5051952;28;20475;-53
2023/01/19 05:37:23;;;;;;;14.73;2.37;;;;;;;0.54;100.00;99231.72;5052335;28;20485;-53
2023/01/19 05:39:49;;;;;;;2.50;1.60;;;;;;;0.51;100.00;99239.59;5055526;28;20481;-53
2023/01/19 05:42:16;;;;;;;1.07;1.07;;;;;;;0.67;100.00;99233.38;5055531;28;20470;-53
2023/01/19 05:44:42;;;;;;;1.07;0.97;;;;;;;0.79;100.00;99238.53;5055633;28;20450;-53
2023/01/19 05:47:10;;;;;;;2.20;1.50;;;;;;;0.83;100.00;99237.66;5055676;28;20530;-55
2023/01/19 05:49:37;;;;;;;0.60;0.60;;;;;;;0.95;100.00;99241.91;5055440;28;20458;-53
2023/01/19 05:52:03;;;;;;;1.90;1.43;;;;;;;1.12;100.00;99236.59;5055039;28;20999;-53
2023/01/19 05:54:29;;;;;;;5.70;2.87;;;;;;;1.09;100.00;99241.81;5055467;28;20453;-53
2023/01/19 05:56:56;;;;;;;2.83;0.73;;;;;;;1.16;100.00;99248.75;5055290;28;20450;-54
2023/01/19 05:59:23;;;;;;;0.43;0.40;;;;;;;1.23;100.00;99247.81;5055338;28;20461;-53
2023/01/19 06:01:50;;;;;;;1.33;1.23;;;;;;;1.26;100.00;99250.44;5055492;28;20532;-57
2023/01/19 06:04:18;;;;;;;1.03;1.03;;;;;;;1.31;100.00;99253.88;5055050;28;20484;-57
2023/01/19 06:06:47;;;;;;;1.90;1.80;;;;;;;1.35;100.00;99255.56;5054943;28;20446;-57
2023/01/19 06:09:13;;;;;;;1.30;1.27;;;;;;;1.36;100.00;99256.44;5055318;28;20451;-57
2023/01/19 06:11:40;;;;;;;1.00;0.90;;;;;;;1.49;100.00;99260.69;5054829;28;20495;-57
2023/01/19 06:14:08;;;;;;;0.97;0.90;;;;;;;1.54;100.00;99271.16;5055030;28;20821;-57
2023/01/19 06:16:35;;;;;;;3.80;0.60;;;;;;;1.57;100.00;99271.97;5054851;28;20458;-57
2023/01/19 06:19:01;;;;;;;0.93;0.93;;;;;;;1.60;100.00;99278.94;5054905;28;20447;-57
2023/01/19 06:21:28;;;;;;;1.00;0.97;;;;;;;1.59;100.00;99272.84;5054712;28;20565;-56
2023/01/19 06:23:54;;;;;;;0.70;0.70;;;;;;;1.73;100.00;99278.81;5055176;28;20455;-56
2023/01/19 06:26:20;;;;;;;1.20;1.10;;;;;;;1.74;100.00;99287.53;5054611;28;20928;-56
2023/01/19 06:28:49;;;;;;;6.10;2.80;;;;;;;1.70;100.00;99278.84;5054963;28;20458;-56
2023/01/19 06:31:16;;;;;;;7.20;1.27;;;;;;;1.73;100.00;99285.81;5054576;28;20490;-56
2023/01/19 06:33:42;;;;;;;1.27;1.07;;;;;;;1.78;100.00;99289.22;5054557;28;20455;-56
2023/01/19 06:36:09;;;;;;;0.70;0.70;;;;;;;1.71;100.00;99292.81;5054714;28;20450;-56
2023/01/19 06:38:35;;;;;;;1.63;1.53;;;;;;;1.71;100.00;99292.81;5055106;28;20446;-56
2023/01/19 06:41:02;;;;;;;1.07;1.07;;;;;;;1.69;100.00;99290.22;5054382;28;20501;-56
2023/01/19 06:43:30;;;;;;;1.37;1.27;;;;;;;1.68;100.00;99296.31;5054296;28;20455;-56
2023/01/19 06:45:57;;;;;;;1.47;1.37;;;;;;;1.68;100.00;99295.47;5054435;28;20442;-56
2023/01/19 06:48:23;;;;;;;4.37;1.27;;;;;;;1.74;100.00;99300.63;5054076;28;20982;-56
2023/01/19 06:50:50;;;;;;;0.33;0.33;;;;;;;1.73;100.00;99294.53;5054315;28;20451;-56
2023/01/19 06:53:18;;;;;;;1.27;1.23;;;;;;;1.71;100.00;99305.91;5054258;28;20932;-57
2023/01/19 06:55:45;;;;;;;1.27;1.17;;;;;;;1.64;100.00;99306.81;5054389;28;20507;-56
2023/01/19 06:58:12;;;;;;;1.13;1.13;;;;;;;1.75;100.00;99312.84;5036468;28;20446;-57
2023/01/19 07:00:38;;;;;;;2.00;1.70;;;;;;;1.78;100.00;99312.81;5036403;28;20970;-57
2023/01/19 07:03:07;;;;;;;4.00;1.57;;;;;;;1.75;100.00;99316.31;5053852;28;20479;-57
2023/01/19 07:05:35;;;;;;;1.47;1.40;;;;;;;1.56;100.00;99303.41;5054099;28;20451;-56
2023/01/19 07:08:02;;;;;;;3.53;0.97;;;;;;;1.54;100.00;99310.44;5054054;28;20443;-57
2023/01/19 07:10:29;;;;;;;3.60;2.33;;;;;;;1.46;100.00;99306.09;5053934;28;20957;-57
2023/01/19 07:13:16;;;;;;;0.60;0.60;;;;;;;1.53;100.00;99312.19;5053498;28;20569;-57
2023/01/19 07:15:42;;;;;;;0.50;0.40;;;;;;;1.53;100.00;99317.41;5054055;28;20483;-57
2023/01/19 07:18:09;;;;;;;0.60;0.50;;;;;;;1.47;100.00;99320.94;5053771;28;20447;-57
2023/01/19 07:20:36;;;;;;;1.63;1.53;;;;;;;1.61;100.00;99315.59;5053862;28;20454;-57
2023/01/19 07:23:03;;;;;;;1.27;1.10;;;;;;;1.66;100.00;99310.31;5053538;28;20474;-56
2023/01/19 07:25:30;;;;;;;1.20;1.20;;;;;;;1.73;100.00;99322.47;5053556;28;20821;-56
2023/01/19 07:27:57;;;;;;;4.33;1.47;;;;;;;1.87;100.00;99320.59;5053377;28;20932;-57
2023/01/19 07:30:24;;;;;;;20.43;2.00;;;;;;;1.93;100.00;99319.69;5053732;28;20450;-57
2023/01/19 07:32:53;;;;;;;0.43;0.40;;;;;;;1.97;100.00;99324.88;5053226;28;20991;-56
2023/01/19 07:35:20;;;;;;;1.93;1.50;;;;;;;1.91;100.00;99327.53;5053539;28;20461;-57
2023/01/19 07:37:47;;;;;;;0.83;0.83;;;;;;;1.83;100.00;99316.28;5053297;28;20458;-57
2023/01/19 07:40:13;;;;;;;1.33;1.10;;;;;;;1.86;100.00;99324.09;5053423;28;20677;-57
2023/01/19 07:42:45;;;;;;;1.97;1.90;;;;;;;1.88;100.00;99319.72;5053002;28;20467;-57
2023/01/19 07:45:13;;;;;;;0.50;0.50;;;;;;;1.91;100.00;99324.91;5053505;28;20504;-57
2023/01/19 07:47:42;;;;;;;1.10;1.10;;;;;;;1.97;100.00;99331.88;5053038;28;20943;-56
2023/01/19 07:50:09;;;;;;;1.07;1.07;;;;;;;2.00;100.00;99321.34;5053203;28;20454;-56
2023/01/19 07:52:36;;;;;;;2.33;2.23;;;;;;;2.02;100.00;99328.31;5052708;28;20516;-56
2023/01/19 07:55:02;;;;;;;1.80;1.70;;;;;;;2.18;100.00;99315.03;5052950;28;20819;-57
2023/01/19 07:57:29;;;;;;;1.13;1.03;;;;;;;2.19;100.00;99316.78;5053209;28;20480;-56
2023/01/19 07:59:55;;;;;;;5.30;1.83;;;;;;;2.20;100.00;99314.16;5052420;28;20972;-57
2023/01/19 08:02:22;;;;;;;1.07;0.97;;;;;;;2.17;100.00;99321.16;5052639;28;20478;-56
2023/01/19 08:04:48;;;;;;;8.50;2.10;;;;;;;2.21;100.00;99317.66;5052975;28;20443;-56
2023/01/19 08:07:15;;;;;;;1.23;1.23;;;;;;;2.28;100.00;99311.44;5052788;28;20812;-57
2023/01/19 08:09:41;;;;;;;0.50;0.47;;;;;;;2.27;100.00;99315.81;5052814;28;20469;-56
2023/01/19 08:12:08;;;;;;;0.40;0.40;;;;;;;2.07;100.00;99302.06;5052554;28;20491;-56
2023/01/19 08:14:34;;;;;;;1.20;1.13;;;;;;;2.06;100.00;99314.31;5052860;28;20457;-57
2023/01/19 08:17:01;;;;;;;2.17;2.07;;;;;;;2.21;100.00;99315.03;5052666;28;20451;-57
2023/01/19 08:19:28;;;;;;;3.50;2.40;;;;;;;2.16;100.00;99317.69;5052617;28;20451;-57
2023/01/19 08:21:55;;;;;;;2.20;2.10;;;;;;;2.25;100.00;99319.34;5052478;28;20562;-57
2023/01/19 08:24:24;;;;;;;1.73;1.37;;;;;;;2.27;100.00;99322.81;5052500;28;20898;-57
2023/01/19 08:26:59;;;;;;;1.73;1.67;;;;;;;2.37;100.00;99324.47;5052880;28;20533;-57
2023/01/19 08:29:26;;;;;;;0.97;0.97;;;;;;;2.44;100.00;99327.88;5052652;28;20477;-56
2023/01/19 08:31:54;;;;;;;0.37;0.37;;;;;;;2.53;100.00;99326.00;5052333;28;20486;-57
2023/01/19 08:34:20;;;;;;;1.10;1.03;;;;;;;2.56;99.77;99336.47;5052575;28;20455;-57
2023/01/19 08:36:47;;;;;;;1.27;0.87;;;;;;;2.80;99.41;99340.56;5052409;28;20450;-57
2023/01/19 08:39:13;;;;;;;5.23;1.27;;;;;;;2.90;99.07;99342.19;5052657;28;20520;-57
2023/01/19 08:41:39;;;;;;;1.33;1.33;;;;;;;3.16;98.93;99340.97;5052537;28;20466;-57
2023/01/19 08:44:06;;;;;;;4.83;1.57;;;;;;;3.13;98.01;99340.97;5052403;28;20454;-58
2023/01/19 08:46:32;;;;;;;0.50;0.50;;;;;;;3.39;97.79;99344.09;5052372;28;20509;-57
2023/01/19 08:48:59;;;;;;;0.97;0.93;;;;;;;3.43;97.53;99348.44;5052380;28;20446;-57
2023/01/19 08:51:25;;;;;;;1.10;0.80;;;;;;;3.69;96.84;99339.25;5052096;28;20836;-58
2023/01/19 08:53:52;;;;;;;0.67;0.67;;;;;;;3.52;97.34;99352.66;5052344;28;20798;-57
2023/01/19 08:56:18;;;;;;;2.43;2.33;;;;;;;3.58;97.57;99343.84;5052633;28;20495;-57
2023/01/19 08:58:46;;;;;;;0.30;0.30;;;;;;;3.67;97.02;99341.03;5052169;28;20955;-57
2023/01/19 09:01:28;;;;;;;1.47;1.37;;;;;;;3.65;96.60;99346.31;5052125;28;20482;-57
2023/01/19 09:03:55;;;;;;;0.70;0.70;;;;;;;4.15;95.99;99361.25;5051915;28;20994;-57
2023/01/19 09:06:24;;;;;;;0.93;0.80;;;;;;;3.93;94.83;99357.25;5052016;28;20446;-57
2023/01/19 09:08:50;;;;;;;2.53;2.43;;;;;;;4.02;94.92;99361.50;5051908;28;20825;-58
2023/01/19 09:11:17;;;;;;;4.03;3.73;;;;;;;4.27;93.82;99362.81;5052534;28;20505;-57
2023/01/19 09:13:44;;;;;;;0.87;0.87;;;;;;;4.47;92.88;99363.28;5056077;28;20486;-56
2023/01/19 09:16:12;;;;;;;1.27;1.10;;;;;;;4.32;93.57;99368.84;5056066;28;20450;-57
2023/01/19 09:18:38;;;;;;;1.20;1.10;;;;;;;4.57;92.91;99360.50;5056247;28;20457;-58
2023/01/19 09:21:05;;;;;;;1.93;1.83;;;;;;;4.33;93.61;99374.97;5056031;28;20470;-58
2023/01/19 09:23:32;;;;;;;2.27;1.50;;;;;;;4.37;92.40;99376.63;5042581;28;20451;-58
2023/01/19 09:26:01;;;;;;;1.60;1.50;;;;;;;4.18;92.66;99372.63;5056095;28;20836;-57
2023/01/19 09:28:28;;;;;;;2.67;1.00;;;;;;;4.22;93.27;99375.16;5055948;28;20447;-57
2023/01/19 09:30:54;;;;;;;0.70;0.70;;;;;;;4.11;92.66;99374.47;5055570;28;20451;-58
2023/01/19 09:33:21;;;;;;;0.67;0.67;;;;;;;4.05;92.98;99375.44;5056023;28;20490;-58
2023/01/19 09:35:50;;;;;;;0.87;0.87;;;;;;;4.02;92.30;99375.50;5055684;28;20451;-57
2023/01/19 09:38:18;;;;;;;1.40;1.30;;;;;;;3.87;92.84;99381.03;5055974;28;20516;-57
2023/01/19 09:40:52;;;;;;;2.23;1.93;;;;;;;3.95;92.76;99384.38;5055628;28;20462;-57
2023/01/19 09:43:40;;;;;;;1.43;0.70;;;;;;;4.05;92.24;99379.84;5055636;28;20439;-58
2023/01/19 09:46:23;;;;;;;1.37;1.27;;;;;;;3.93;92.80;99377.41;5055784;28;20450;-58
2023/01/19 09:48:53;;;;;;;9.73;1.77;;;;;;;3.87;92.57;99381.03;5055791;28;20474;-58
2023/01/19 09:51:27;;;;;;;0.90;0.90;;;;;;;3.86;92.50;99379.28;5055629;28;20847;-57
2023/01/19 09:54:11;;;;;;;0.77;0.77;;;;;;;3.92;92.65;99373.94;5055277;28;20494;-58
2023/01/19 09:56:38;;;;;;;0.53;0.50;;;;;;;3.83;92.66;99380.19;5055795;28;20450;-57
2023/01/19 09:59:29;;;;;;;1.43;1.43;;;;;;;3.96;92.96;99382.63;5055565;28;20474;-58
2023/01/19 10:02:29;;;;;;;7.73;1.63;;;;;;;4.08;92.58;99380.66;5055229;28;20494;-56
2023/01/19 10:05:18;;;;;;;1.70;1.43;;;;;;;4.00;92.21;99381.69;5055313;28;20449;-56
2023/01/19 10:07:54;;;;;;;1.00;1.00;;;;;;;4.00;92.38;99385.19;5055252;28;20459;-56
2023/01/19 10:10:26;;;;;;;0.80;0.80;;;;;;;4.14;92.50;99383.19;5055008;28;20454;-56
2023/01/19 10:13:20;;;;;;;0.83;0.83;;;;;;;4.22;92.28;99390.06;5055229;28;20497;-55
2023/01/19 10:15:59;;;;;;;0.60;0.60;;;;;;;4.34;92.03;99381.97;5044390;28;20446;-56
2023/01/19 10:18:35;;;;;;;1.03;1.03;;;;;;;4.33;90.81;99373.19;5054971;28;20450;-56
2023/01/19 10:21:11;;;;;;;1.27;1.17;;;;;;;4.52;90.48;99378.97;5054562;28;20504;-55
2023/01/19 10:24:03;;;;;;;1.40;0.80;;;;;;;4.52;89.72;99375.47;5042065;28;20442;-55
2023/01/19 10:26:42;;;;;;;2.33;1.23;;;;;;;4.49;89.57;99376.41;5054884;28;20454;-56
2023/01/19 10:29:35;;;;;;;1.53;1.33;;;;;;;4.50;89.10;99372.03;5054691;28;20443;-55
2023/01/19 10:32:12;;;;;;;1.43;0.70;;;;;;;4.54;87.86;99382.47;5037193;28;20545;-56
2023/01/19 10:34:40;;;;;;;0.50;0.50;;;;;;;4.76;87.38;99375.88;5054579;28;20447;-55
2023/01/19 10:37:31;;;;;;;1.33;0.93;;;;;;;4.49;87.38;99379.03;5054649;28;20469;-58
2023/01/19 10:40:09;;;;;;;0.57;0.57;;;;;;;4.72;87.43;99375.97;5033518;28;20454;-58
2023/01/19 10:42:39;;;;;;;5.17;1.33;;;;;;;4.81;87.28;99370.53;5054376;28;20504;-56
2023/01/19 10:45:28;;;;;;;0.43;0.43;;;;;;;4.68;86.86;99376.94;5054573;28;20533;-55
2023/01/19 10:47:58;;;;;;;1.00;0.77;;;;;;;4.86;87.03;99368.69;5054291;28;20489;-56
2023/01/19 10:50:28;;;;;;;1.10;0.60;;;;;;;4.92;86.56;99367.66;5054385;28;20481;-56
2023/01/19 10:53:04;;;;;;;0.50;0.40;;;;;;;4.61;86.58;99355.13;5054193;28;20500;-56
2023/01/19 10:55:36;;;;;;;10.40;2.43;;;;;;;4.47;87.07;99359.78;5054297;28;20446;-56
2023/01/19 10:58:04;;;;;;;1.30;0.63;;;;;;;4.65;86.51;99362.06;5054354;28;20458;-55
2023/01/19 11:00:31;;;;;;;3.07;1.00;;;;;;;4.62;85.68;99359.50;5054015;28;20520;-56
2023/01/19 11:02:57;;;;;;;1.63;1.53;;;;;;;4.59;86.28;99362.19;5053936;28;20558;-56
2023/01/19 11:05:28;;;;;;;3.40;1.03;;;;;;;4.69;85.64;99361.13;5054150;28;20451;-56
2023/01/19 11:07:55;;;;;;;8.50;0.67;;;;;;;4.64;85.51;99359.47;5053987;28;20478;-56
2023/01/19 11:10:25;;;;;;;1.37;1.37;;;;;;;4.74;84.72;99355.75;5053993;28;20450;-55
2023/01/19 11:13:11;;;;;;;0.30;0.20;;;;;;;4.82;84.74;99359.13;5053855;28;20906;-56
2023/01/19 11:15:46;;;;;;;0.70;0.67;;;;;;;4.89;83.94;99357.22;5042258;28;20542;-56
2023/01/19 11:18:27;;;;;;;2.10;0.40;;;;;;;4.91;84.19;99353.63;5053795;28;20475;-55
2023/01/19 11:20:56;;;;;;;11.30;0.73;;;;;;;4.71;84.96;99366.34;5053873;28;20927;-55
2023/01/19 11:23:33;;;;;;;0.57;0.53;;;;;;;4.70;84.42;99354.97;5053603;28;20462;-56
2023/01/19 11:26:04;;;;;;;1.07;1.07;;;;;;;4.79;84.01;99369.69;5053636;28;20500;-55
2023/01/19 11:28:33;;;;;;;1.37;1.37;;;;;;;4.86;83.84;99362.53;5053973;28;20446;-56
2023/01/19 11:31:15;;;;;;;0.60;0.60;;;;;;;4.99;84.76;99361.41;5053747;28;20528;-55
2023/01/19 11:33:51;;;;;;;2.13;0.40;;;;;;;5.10;84.07;99362.03;5035983;28;20999;-56
2023/01/19 11:36:24;;;;;;;1.03;1.03;;;;;;;4.88;82.70;99363.38;5053013;28;20557;-55
2023/01/19 11:38:53;;;;;;;1.00;0.40;;;;;;;4.80;84.59;99358.28;5053521;28;20538;-56
2023/01/19 11:41:22;;;;;;;0.30;0.23;;;;;;;4.72;83.82;99368.09;5053276;28;20506;-56
2023/01/19 11:43:52;;;;;;;1.33;1.10;;;;;;;4.95;82.97;99367.63;5053090;28;20443;-55
2023/01/19 11:46:22;;;;;;;0.73;0.47;;;;;;;4.99;82.90;99359.63;5053280;28;20451;-55
2023/01/19 11:48:56;;;;;;;0.40;0.40;;;;;;;4.86;83.13;99365.19;5053168;28;20450;-56
2023/01/19 11:51:27;;;;;;;33.27;1.50;;;;;;;4.83;83.16;99360.84;5053321;28;20834;-56
2023/01/19 11:53:53;;;;;;;8.40;0.50;;;;;;;4.70;83.25;99364.63;5053122;28;20490;-56
2023/01/19 11:56:27;;;;;;;0.40;0.40;;;;;;;4.72;83.58;99368.94;5053573;28;20451;-55
2023/01/19 11:58:55;;;;;;;5.70;1.20;;;;;;;4.65;83.22;99363.81;5053144;28;20450;-55